Time;durP1;ratioP1;P1;durP2;ratioP2;P2;SDS_P1;SDS_P2;PMS_P1;PMS_P2;Temp;Humidity;BMP_temperature;BMP_pressure;BME280_temperature;BME280_humidity;BME280_pressure;Samples;Min_cycle;Max_cycle;Signal;HPM_P1;HPM_P2
2024/02/13 00:00:10;;;;;;;0.60;0.60;;;5.70;99.90;;;;;;5022396;28;20319;-88
2024/02/13 00:02:38;;;;;;;0.53;0.53;;;5.40;99.90;;;;;;5022136;28;20234;-89
2024/02/13 00:05:08;;;;;;;0.50;0.50;;;5.70;99.90;;;;;;5038673;28;20309;-88
2024/02/13 00:07:41;;;;;;;1.30;0.73;;;5.40;99.90;;;;;;5020828;28;20234;-88
2024/02/13 00:10:10;;;;;;;0.53;0.53;;;5.60;99.90;;;;;;5023268;28;20265;-88
2024/02/13 00:12:39;;;;;;;0.97;0.93;;;5.40;99.90;;;;;;5021389;28;20237;-88
2024/02/13 00:15:11;;;;;;;0.83;0.83;;;5.40;99.90;;;;;;5021946;28;20231;-88
2024/02/13 00:17:37;;;;;;;0.67;0.67;;;5.30;99.90;;;;;;5023259;28;20424;-88
2024/02/13 00:20:08;;;;;;;1.80;1.27;;;5.50;99.90;;;;;;5006647;28;20300;-88
2024/02/13 00:22:35;;;;;;;0.40;0.40;;;5.50;99.90;;;;;;5023089;28;20222;-88
2024/02/13 00:25:02;;;;;;;0.77;0.77;;;5.30;99.90;;;;;;5006008;28;20325;-88
2024/02/13 00:27:32;;;;;;;0.40;0.40;;;5.50;99.90;;;;;;5021140;28;20226;-88
2024/02/13 00:29:58;;;;;;;0.83;0.83;;;5.40;99.90;;;;;;5046097;28;20261;-88
2024/02/13 00:32:24;;;;;;;1.30;0.93;;;5.30;99.90;;;;;;5023574;28;20222;-87
2024/02/13 00:34:50;;;;;;;1.80;1.70;;;5.60;99.90;;;;;;5022398;28;20206;-90
2024/02/13 00:37:16;;;;;;;8.60;1.00;;;5.50;99.90;;;;;;5012846;28;20428;-89
2024/02/13 00:39:43;;;;;;;0.57;0.57;;;5.40;99.90;;;;;;5046565;28;20306;-88
2024/02/13 00:42:09;;;;;;;0.67;0.67;;;5.20;99.90;;;;;;5022015;28;20250;-88
2024/02/13 00:44:38;;;;;;;0.60;0.60;;;5.50;99.90;;;;;;5011080;28;20214;-89
2024/02/13 00:47:05;;;;;;;0.73;0.73;;;5.20;99.90;;;;;;5017209;28;20234;-89
2024/02/13 00:49:31;;;;;;;0.47;0.47;;;5.40;99.90;;;;;;5051136;28;20240;-88
2024/02/13 00:51:57;;;;;;;0.70;0.70;;;5.50;99.90;;;;;;5028104;28;20512;-88
2024/02/13 00:54:24;;;;;;;1.10;0.93;;;5.50;99.90;;;;;;5030300;28;20238;-89
2024/02/13 00:56:53;;;;;;;1.50;0.60;;;5.40;99.90;;;;;;5028893;28;20283;-89
2024/02/13 00:59:22;;;;;;;10.53;0.77;;;5.40;99.90;;;;;;5028193;28;20283;-89
2024/02/13 01:01:48;;;;;;;1.33;1.33;;;5.30;99.90;;;;;;5025248;28;20257;-89
2024/02/13 01:04:15;;;;;;;0.80;0.80;;;5.30;99.90;;;;;;5024648;28;20222;-89
2024/02/13 01:06:40;;;;;;;0.73;0.73;;;5.50;99.90;;;;;;5008387;28;20511;-89
2024/02/13 01:09:07;;;;;;;0.77;0.77;;;5.30;99.90;;;;;;5025148;28;20320;-88
2024/02/13 01:11:35;;;;;;;0.70;0.70;;;5.30;99.90;;;;;;5008120;28;20222;-89
2024/02/13 01:14:02;;;;;;;1.20;1.20;;;5.40;99.90;;;;;;5025440;28;20206;-89
2024/02/13 01:16:28;;;;;;;0.50;0.50;;;5.50;99.90;;;;;;5026100;28;20273;-89
2024/02/13 01:18:56;;;;;;;0.93;0.93;;;5.30;99.90;;;;;;5030070;28;20230;-89
2024/02/13 01:21:22;;;;;;;1.13;1.13;;;5.30;99.90;;;;;;5029180;28;20719;-89
2024/02/13 01:23:49;;;;;;;0.53;0.53;;;5.60;99.90;;;;;;5028558;28;20323;-89
2024/02/13 01:26:18;;;;;;;0.67;0.67;;;5.50;99.90;;;;;;5029573;28;20225;-89
2024/02/13 01:28:47;;;;;;;1.27;0.80;;;5.50;99.90;;;;;;5030443;28;20678;-89
2024/02/13 01:31:14;;;;;;;0.87;0.87;;;5.30;99.90;;;;;;5013051;28;20357;-89
2024/02/13 01:33:41;;;;;;;1.30;0.70;;;5.30;99.90;;;;;;5014754;28;20376;-89
2024/02/13 01:36:08;;;;;;;0.77;0.67;;;5.40;99.90;;;;;;5030261;28;20230;-89
2024/02/13 01:38:34;;;;;;;1.27;1.17;;;5.40;99.90;;;;;;5013784;28;20218;-89
2024/02/13 01:41:00;;;;;;;1.00;1.00;;;5.50;99.90;;;;;;5031352;28;20211;-89
2024/02/13 01:43:29;;;;;;;1.80;1.43;;;5.30;99.90;;;;;;5029805;28;20272;-88
2024/02/13 01:45:56;;;;;;;1.30;0.93;;;5.30;99.90;;;;;;5053635;28;20341;-88
2024/02/13 01:48:25;;;;;;;0.90;0.90;;;5.30;99.90;;;;;;5052553;28;20246;-89
2024/02/13 01:50:56;;;;;;;1.30;1.30;;;5.30;99.90;;;;;;5028314;28;20234;-89
2024/02/13 01:53:23;;;;;;;1.03;1.03;;;5.30;99.90;;;;;;5029191;28;20262;-89
2024/02/13 01:55:50;;;;;;;0.90;0.90;;;5.40;99.90;;;;;;5027764;28;20466;-88
2024/02/13 01:58:19;;;;;;;0.43;0.43;;;5.50;99.90;;;;;;5046507;28;20342;-88
2024/02/13 02:00:45;;;;;;;1.60;1.23;;;5.40;99.90;;;;;;5026802;28;21043;-89
2024/02/13 02:03:14;;;;;;;2.73;2.57;;;5.30;99.90;;;;;;5008441;28;20227;-88
2024/02/13 02:05:40;;;;;;;0.67;0.67;;;5.40;99.90;;;;;;5040221;28;20750;-88
2024/02/13 02:08:08;;;;;;;1.53;1.23;;;5.40;99.90;;;;;;5008246;28;20552;-89
2024/02/13 02:10:34;;;;;;;5.30;1.40;;;5.40;99.90;;;;;;5024809;28;20474;-89
2024/02/13 02:13:01;;;;;;;0.43;0.43;;;5.50;99.90;;;;;;5024493;28;20805;-89
2024/02/13 02:15:28;;;;;;;1.57;1.47;;;5.40;99.90;;;;;;5025884;28;20329;-89
2024/02/13 02:17:54;;;;;;;6.77;1.97;;;5.60;99.90;;;;;;5023704;28;20226;-89
2024/02/13 02:20:22;;;;;;;1.70;1.27;;;5.50;99.90;;;;;;5023792;28;20214;-89
2024/02/13 02:22:49;;;;;;;0.90;0.90;;;5.40;99.90;;;;;;5023568;28;20218;-88
2024/02/13 02:25:22;;;;;;;1.77;1.67;;;5.60;99.90;;;;;;5023166;28;20686;-88
2024/02/13 02:27:49;;;;;;;1.77;1.23;;;5.50;99.90;;;;;;5024718;28;20230;-88
2024/02/13 02:30:15;;;;;;;5.70;1.30;;;5.40;99.90;;;;;;5023145;28;20252;-89
2024/02/13 02:32:41;;;;;;;1.13;1.13;;;5.60;99.90;;;;;;5012973;28;20203;-89
2024/02/13 02:35:07;;;;;;;2.93;1.27;;;5.60;99.90;;;;;;5023843;28;20194;-88
2024/02/13 02:37:39;;;;;;;0.93;0.93;;;5.40;99.90;;;;;;5024908;28;20249;-89
2024/02/13 02:40:05;;;;;;;0.57;0.57;;;5.50;99.90;;;;;;5025075;28;20223;-89
2024/02/13 02:42:31;;;;;;;0.80;0.80;;;5.40;99.90;;;;;;5023996;28;20246;-89
2024/02/13 02:44:58;;;;;;;1.77;1.67;;;5.40;99.90;;;;;;5023771;28;20230;-88
2024/02/13 02:47:24;;;;;;;1.90;1.20;;;5.60;99.90;;;;;;5023507;28;20906;-87
2024/02/13 02:49:50;;;;;;;1.60;1.03;;;5.40;99.90;;;;;;5023554;28;20658;-89
2024/02/13 02:52:17;;;;;;;2.33;2.10;;;5.30;99.90;;;;;;5013716;28;20267;-89
2024/02/13 02:54:43;;;;;;;3.83;2.93;;;5.30;99.90;;;;;;5022905;28;20222;-89
2024/02/13 02:57:12;;;;;;;1.70;1.57;;;5.40;99.90;;;;;;5023990;28;20226;-89
2024/02/13 02:59:38;;;;;;;1.73;1.63;;;5.30;99.90;;;;;;5024398;28;20607;-88
2024/02/13 03:02:04;;;;;;;0.87;0.87;;;5.30;99.90;;;;;;5024449;28;20207;-89
2024/02/13 03:04:30;;;;;;;2.30;2.20;;;5.30;99.90;;;;;;5006044;28;20231;-89
2024/02/13 03:06:56;;;;;;;12.20;2.03;;;5.50;99.90;;;;;;5006141;28;20292;-89
2024/02/13 03:09:22;;;;;;;1.70;1.40;;;5.60;99.90;;;;;;5023297;28;20267;-89
2024/02/13 03:11:48;;;;;;;2.27;1.60;;;5.50;99.90;;;;;;5006944;28;20559;-89
2024/02/13 03:14:14;;;;;;;3.30;3.10;;;5.60;99.90;;;;;;5023618;28;20221;-89
2024/02/13 03:16:40;;;;;;;0.97;0.97;;;5.50;99.90;;;;;;5024371;28;20230;-89
2024/02/13 03:19:06;;;;;;;2.43;1.37;;;5.30;99.90;;;;;;5023193;28;20284;-89
2024/02/13 03:21:33;;;;;;;1.70;1.60;;;5.30;99.90;;;;;;5024135;28;20628;-89
2024/02/13 03:23:59;;;;;;;1.90;1.77;;;5.60;99.90;;;;;;5022073;28;20226;-89
2024/02/13 03:26:25;;;;;;;2.70;2.13;;;5.30;99.90;;;;;;5011914;28;20226;-88
2024/02/13 03:28:51;;;;;;;7.60;1.17;;;5.50;99.90;;;;;;5023411;28;20244;-89
2024/02/13 03:31:17;;;;;;;2.43;1.67;;;5.60;99.90;;;;;;5023899;28;20233;-89
2024/02/13 03:33:43;;;;;;;1.50;1.13;;;5.50;99.90;;;;;;5022655;28;20488;-89
2024/02/13 03:36:10;;;;;;;1.73;1.63;;;5.60;99.90;;;;;;5006235;28;20227;-89
2024/02/13 03:38:35;;;;;;;1.73;1.63;;;5.30;99.90;;;;;;5022537;28;20229;-88
2024/02/13 03:41:02;;;;;;;1.30;1.30;;;5.60;99.90;;;;;;5025030;28;20494;-89
2024/02/13 03:43:28;;;;;;;1.87;1.67;;;5.60;99.90;;;;;;5006024;28;20235;-88
2024/02/13 03:45:55;;;;;;;2.60;2.40;;;5.30;99.90;;;;;;5021324;28;20260;-89
2024/02/13 03:48:21;;;;;;;3.60;1.60;;;5.40;99.90;;;;;;5022497;28;20237;-89
2024/02/13 03:50:47;;;;;;;5.87;2.00;;;5.60;99.90;;;;;;5005802;28;20898;-89
2024/02/13 03:53:13;;;;;;;1.90;1.80;;;5.40;99.90;;;;;;5006577;28;20210;-88
2024/02/13 03:55:40;;;;;;;0.77;0.77;;;5.40;99.90;;;;;;5021926;28;20281;-89
2024/02/13 03:58:05;;;;;;;1.53;1.47;;;5.40;99.90;;;;;;5023485;28;20261;-89
2024/02/13 04:00:34;;;;;;;0.93;0.87;;;5.70;99.90;;;;;;5045108;28;20301;-89
2024/02/13 04:03:00;;;;;;;0.70;0.70;;;5.80;99.90;;;;;;5023041;28;20683;-89
2024/02/13 04:05:26;;;;;;;1.90;1.80;;;5.70;99.90;;;;;;5022043;28;20233;-89
2024/02/13 04:07:53;;;;;;;1.50;0.97;;;5.80;99.90;;;;;;5022186;28;20207;-89
2024/02/13 04:10:19;;;;;;;1.63;1.53;;;5.80;99.90;;;;;;5004970;28;20241;-89
2024/02/13 04:12:45;;;;;;;1.87;1.77;;;5.80;99.90;;;;;;5005164;28;20242;-89
2024/02/13 04:15:13;;;;;;;2.93;1.60;;;5.80;99.90;;;;;;5023092;28;20292;-89
2024/02/13 04:17:38;;;;;;;1.00;1.00;;;5.80;99.90;;;;;;5021533;28;20286;-89
2024/02/13 04:20:05;;;;;;;1.13;1.13;;;6.00;99.90;;;;;;5024225;28;20622;-89
2024/02/13 04:22:33;;;;;;;0.57;0.57;;;5.90;99.90;;;;;;5023010;28;20218;-90
2024/02/13 04:24:58;;;;;;;4.30;1.90;;;6.00;99.90;;;;;;5005138;28;20261;-89
2024/02/13 04:27:24;;;;;;;1.33;0.87;;;6.00;99.90;;;;;;5005200;28;21065;-89
2024/02/13 04:29:50;;;;;;;15.77;1.50;;;5.90;99.90;;;;;;5022942;28;20245;-90
2024/02/13 04:32:17;;;;;;;1.03;1.03;;;6.10;99.90;;;;;;5005643;28;20207;-89
2024/02/13 04:34:42;;;;;;;0.50;0.50;;;6.20;99.90;;;;;;5022913;28;20236;-89
2024/02/13 04:37:09;;;;;;;1.30;1.20;;;6.20;99.90;;;;;;5022970;28;21290;-90
2024/02/13 04:39:38;;;;;;;1.83;1.73;;;6.30;99.90;;;;;;5004710;28;20562;-90
2024/02/13 04:42:04;;;;;;;5.90;2.50;;;6.10;99.90;;;;;;5022854;28;20605;-87
2024/02/13 04:44:30;;;;;;;13.40;3.03;;;6.20;99.90;;;;;;5020574;28;20210;-89
2024/02/13 04:46:56;;;;;;;2.93;2.23;;;6.20;99.90;;;;;;5005393;28;20244;-89
2024/02/13 04:49:31;;;;;;;1.07;1.07;;;6.10;99.90;;;;;;5048860;28;20953;-89
2024/02/13 04:51:57;;;;;;;1.60;1.50;;;6.20;99.90;;;;;;5036985;28;20233;-89
2024/02/13 04:54:24;;;;;;;1.40;1.03;;;6.20;99.90;;;;;;4997578;28;20230;-89
2024/02/13 04:56:50;;;;;;;1.77;1.67;;;6.20;99.90;;;;;;5021644;28;20257;-89
2024/02/13 04:59:16;;;;;;;3.43;1.73;;;6.30;99.90;;;;;;4997631;28;20675;-89
2024/02/13 05:01:45;;;;;;;4.37;2.83;;;6.10;99.90;;;;;;5022070;28;20242;-88
2024/02/13 05:09:24;;;;;;;2.23;2.13;;;6.20;99.90;;;;;;5021863;28;20237;-89
2024/02/13 05:11:50;;;;;;;1.50;1.50;;;6.20;99.90;;;;;;5021131;28;20718;-89
2024/02/13 05:14:16;;;;;;;2.87;2.07;;;6.10;99.90;;;;;;5022033;28;20238;-89
2024/02/13 05:16:43;;;;;;;27.27;2.93;;;6.30;99.90;;;;;;5021942;28;20250;-89
2024/02/13 05:19:09;;;;;;;2.60;2.40;;;6.10;99.90;;;;;;5021101;28;20226;-89
2024/02/13 05:21:35;;;;;;;1.17;1.13;;;6.30;99.90;;;;;;5020995;28;20230;-88
2024/02/13 05:24:05;;;;;;;3.50;2.50;;;6.10;99.90;;;;;;5004315;28;20512;-89
2024/02/13 05:26:33;;;;;;;1.67;1.57;;;6.20;99.90;;;;;;5004689;28;20231;-89
2024/02/13 05:28:59;;;;;;;1.00;1.00;;;6.10;99.90;;;;;;5041693;28;20295;-89
2024/02/13 05:31:25;;;;;;;1.33;0.93;;;6.10;99.90;;;;;;5021143;28;20329;-89
2024/02/13 05:33:52;;;;;;;1.17;1.17;;;6.30;99.90;;;;;;5020200;28;20268;-89
2024/02/13 05:36:18;;;;;;;2.07;1.17;;;6.10;99.90;;;;;;5021264;28;20230;-89
2024/02/13 05:38:45;;;;;;;2.90;2.50;;;6.20;99.90;;;;;;5027685;28;26100;-89
2024/02/13 05:41:11;;;;;;;2.07;1.53;;;6.30;99.90;;;;;;5022868;28;20210;-89
2024/02/13 05:43:39;;;;;;;4.77;1.77;;;6.40;99.90;;;;;;5020902;28;20226;-89
2024/02/13 05:46:05;;;;;;;3.37;3.07;;;6.30;99.90;;;;;;5020326;28;20812;-89
2024/02/13 05:48:31;;;;;;;11.60;2.63;;;6.30;99.90;;;;;;5021157;28;20272;-89
2024/02/13 05:50:57;;;;;;;1.33;1.23;;;6.40;99.90;;;;;;5022331;28;20586;-90
2024/02/13 05:53:25;;;;;;;3.30;2.00;;;6.40;99.90;;;;;;5012695;28;20214;-89
2024/02/13 05:55:51;;;;;;;4.23;2.53;;;6.40;99.90;;;;;;5022225;28;20577;-89
2024/02/13 05:58:17;;;;;;;5.40;2.20;;;6.30;99.90;;;;;;5020059;28;20510;-89
2024/02/13 06:00:43;;;;;;;2.70;2.50;;;6.40;99.90;;;;;;5022411;28;20893;-89
2024/02/13 06:03:11;;;;;;;12.13;1.60;;;6.20;99.90;;;;;;5011407;28;20223;-89
2024/02/13 06:05:37;;;;;;;0.67;0.67;;;6.20;99.90;;;;;;5007369;28;20313;-89
2024/02/13 06:08:03;;;;;;;1.13;1.13;;;6.30;99.90;;;;;;5024493;28;20617;-89
2024/02/13 06:10:33;;;;;;;3.23;1.87;;;6.30;99.90;;;;;;5025388;28;20244;-89
2024/02/13 06:12:59;;;;;;;2.30;2.20;;;6.30;99.90;;;;;;5047584;28;20280;-89
2024/02/13 06:15:25;;;;;;;3.03;1.90;;;6.30;99.90;;;;;;5023510;28;20690;-91
2024/02/13 06:17:51;;;;;;;4.77;3.73;;;6.30;99.90;;;;;;5023874;28;20222;-89
2024/02/13 06:20:18;;;;;;;2.23;2.07;;;6.20;99.90;;;;;;5008582;28;20276;-89
2024/02/13 06:22:44;;;;;;;0.80;0.80;;;6.20;99.90;;;;;;5023938;28;20305;-89
2024/02/13 06:25:12;;;;;;;3.07;2.83;;;6.30;99.90;;;;;;5024036;28;20296;-89
2024/02/13 06:27:38;;;;;;;2.03;1.30;;;6.40;99.90;;;;;;5024323;28;20305;-89
2024/02/13 06:30:05;;;;;;;5.83;2.27;;;6.50;99.90;;;;;;5023652;28;20238;-89
2024/02/13 06:32:30;;;;;;;1.23;1.13;;;6.50;99.90;;;;;;4991572;28;20206;-89
2024/02/13 06:34:56;;;;;;;0.90;0.90;;;6.30;99.90;;;;;;5040852;28;20253;-89
2024/02/13 06:37:23;;;;;;;1.67;1.57;;;6.30;99.90;;;;;;5023677;28;20237;-89
2024/02/13 06:39:49;;;;;;;1.10;1.10;;;6.20;99.90;;;;;;5023671;28;20230;-88
2024/02/13 06:42:16;;;;;;;1.47;1.23;;;6.20;99.90;;;;;;5023489;28;20227;-88
2024/02/13 06:44:43;;;;;;;1.17;1.03;;;6.20;99.90;;;;;;5024833;28;20214;-90
2024/02/13 06:47:10;;;;;;;1.90;1.80;;;6.40;99.90;;;;;;5025594;28;20234;-89
2024/02/13 06:49:37;;;;;;;3.33;3.03;;;6.30;99.90;;;;;;5023410;28;20230;-90
2024/02/13 06:52:06;;;;;;;3.10;2.27;;;6.40;99.90;;;;;;5023461;28;20230;-90
2024/02/13 06:54:32;;;;;;;3.57;3.23;;;6.40;99.90;;;;;;5025110;28;20225;-91
2024/02/13 06:56:59;;;;;;;4.37;2.83;;;6.40;99.90;;;;;;5022870;28;20250;-90
2024/02/13 06:59:27;;;;;;;3.93;1.70;;;6.40;99.90;;;;;;5023057;28;20210;-90
2024/02/13 07:01:53;;;;;;;2.97;2.60;;;6.50;99.90;;;;;;5041308;28;20203;-90
2024/02/13 07:04:19;;;;;;;2.90;2.27;;;6.40;99.90;;;;;;5006604;28;20662;-86
2024/02/13 07:06:44;;;;;;;2.33;2.13;;;6.40;99.90;;;;;;5022640;28;20321;-88
2024/02/13 07:09:11;;;;;;;1.70;1.63;;;6.50;99.90;;;;;;5005822;28;20226;-88
2024/02/13 07:11:37;;;;;;;2.77;1.27;;;6.50;99.90;;;;;;5021801;28;20210;-88
2024/02/13 07:14:03;;;;;;;3.33;2.07;;;6.50;99.90;;;;;;5024065;28;20222;-88
2024/02/13 07:16:29;;;;;;;2.93;2.73;;;6.50;99.90;;;;;;5022639;28;20226;-87
2024/02/13 07:18:54;;;;;;;2.67;1.90;;;6.40;99.90;;;;;;5019810;28;20226;-88
2024/02/13 07:21:20;;;;;;;1.97;1.87;;;6.50;99.90;;;;;;5024546;28;20231;-89
2024/02/13 07:23:46;;;;;;;2.43;1.53;;;6.60;99.90;;;;;;5022004;28;20231;-89
2024/02/13 07:26:12;;;;;;;1.73;1.63;;;6.50;99.90;;;;;;5005884;28;20272;-88
2024/02/13 07:28:39;;;;;;;2.50;2.30;;;6.60;99.90;;;;;;5024189;28;20690;-89
2024/02/13 07:31:07;;;;;;;12.23;1.87;;;6.60;99.90;;;;;;5038896;28;20226;-89
2024/02/13 07:33:33;;;;;;;3.50;3.17;;;6.50;99.90;;;;;;5023916;28;20222;-89
2024/02/13 07:36:00;;;;;;;7.73;4.23;;;6.70;99.90;;;;;;5005248;28;20237;-89
2024/02/13 07:38:26;;;;;;;1.83;1.73;;;6.80;99.90;;;;;;5022115;28;20203;-88
2024/02/13 07:40:52;;;;;;;2.20;1.83;;;6.80;99.90;;;;;;5007117;28;20206;-90
2024/02/13 07:43:18;;;;;;;1.93;1.80;;;6.70;99.90;;;;;;5022718;28;20237;-89
2024/02/13 07:45:45;;;;;;;2.37;2.17;;;6.90;99.90;;;;;;5022747;28;20230;-89
2024/02/13 07:48:11;;;;;;;2.93;2.67;;;6.80;99.90;;;;;;5005902;28;20235;-90
2024/02/13 07:50:38;;;;;;;0.70;0.70;;;6.80;99.90;;;;;;5012901;28;20651;-89
2024/02/13 07:53:06;;;;;;;3.77;2.40;;;6.80;99.90;;;;;;5048860;28;20210;-89
2024/02/13 07:55:36;;;;;;;2.37;1.17;;;6.90;99.90;;;;;;5022854;28;20227;-90
2024/02/13 07:58:03;;;;;;;1.23;1.23;;;7.00;99.90;;;;;;5038270;28;20413;-91
2024/02/13 08:00:31;;;;;;;0.70;0.70;;;7.20;99.90;;;;;;5023529;28;20341;-89
2024/02/13 08:02:59;;;;;;;1.90;1.40;;;7.20;99.90;;;;;;5022247;28;20265;-90
2024/02/13 08:05:25;;;;;;;1.07;1.07;;;7.20;99.90;;;;;;5021842;28;20223;-91
2024/02/13 09:13:48;;;;;;;0.40;0.40;;;8.80;99.90;;;;;;5028394;28;20241;-86
2024/02/13 09:16:14;;;;;;;10.80;0.83;;;8.80;99.90;;;;;;4995601;28;20227;-86
2024/02/13 09:18:40;;;;;;;0.37;0.37;;;8.80;99.90;;;;;;4999780;28;20319;-86
2024/02/13 09:21:09;;;;;;;1.27;1.27;;;8.80;99.90;;;;;;5001594;28;20321;-89
2024/02/13 09:23:36;;;;;;;1.90;1.03;;;8.90;99.90;;;;;;5021126;28;20229;-88
2024/02/13 09:26:01;;;;;;;0.90;0.83;;;8.90;99.90;;;;;;5016881;28;20237;-90
2024/02/13 09:28:28;;;;;;;2.10;2.00;;;8.90;99.90;;;;;;4995538;28;20231;-90
2024/02/13 09:30:53;;;;;;;0.70;0.70;;;8.80;99.90;;;;;;5015677;28;20218;-89
2024/02/13 09:33:22;;;;;;;3.53;1.23;;;8.90;99.90;;;;;;4994902;28;20600;-86
2024/02/13 09:35:52;;;;;;;3.73;0.93;;;9.00;99.90;;;;;;4997427;28;20268;-88
2024/02/13 09:38:18;;;;;;;13.57;2.07;;;9.10;99.90;;;;;;5005991;28;20202;-87
2024/02/13 09:40:47;;;;;;;0.63;0.63;;;9.10;99.90;;;;;;5008509;28;20218;-87
2024/02/13 09:43:17;;;;;;;0.97;0.97;;;9.00;99.90;;;;;;4991456;28;20215;-86
2024/02/13 09:45:44;;;;;;;1.60;1.33;;;9.00;99.90;;;;;;4995244;28;20226;-88
2024/02/13 09:48:23;;;;;;;1.20;1.10;;;8.90;99.90;;;;;;5008469;28;20675;-87
2024/02/13 09:50:52;;;;;;;1.97;1.43;;;9.00;99.90;;;;;;5016009;28;20678;-87
2024/02/13 09:53:25;;;;;;;4.10;1.57;;;8.90;99.90;;;;;;5026741;28;20211;-87
2024/02/13 09:55:55;;;;;;;1.80;0.70;;;9.00;99.90;;;;;;5026196;28;20280;-88
2024/02/13 09:58:22;;;;;;;17.93;1.53;;;8.90;99.90;;;;;;4989050;28;20230;-87
2024/02/13 10:00:48;;;;;;;3.47;3.27;;;9.00;99.90;;;;;;4964726;28;20559;-88
2024/02/13 10:03:14;;;;;;;0.60;0.60;;;9.00;99.90;;;;;;4985883;28;20253;-86
2024/02/13 10:05:40;;;;;;;5.80;1.00;;;9.00;99.90;;;;;;4983971;28;20687;-88
2024/02/13 10:08:08;;;;;;;1.43;0.63;;;9.10;99.90;;;;;;5018216;28;20202;-88
2024/02/13 10:10:34;;;;;;;4.43;2.07;;;9.10;99.90;;;;;;5013319;28;20264;-86
2024/02/13 10:13:00;;;;;;;0.93;0.90;;;9.10;99.90;;;;;;5001085;28;20223;-87
2024/02/13 10:15:43;;;;;;;1.43;0.83;;;9.10;99.90;;;;;;5000320;28;20238;-88
2024/02/13 10:18:13;;;;;;;1.20;1.10;;;9.00;99.90;;;;;;4988382;28;20231;-88
2024/02/13 10:20:40;;;;;;;1.07;1.07;;;9.10;99.90;;;;;;4991512;28;20211;-87
2024/02/13 10:23:07;;;;;;;0.80;0.80;;;9.20;99.90;;;;;;5006859;28;20199;-87
2024/02/13 10:25:34;;;;;;;2.00;1.80;;;9.20;99.90;;;;;;4999659;28;20238;-88
2024/02/13 10:28:02;;;;;;;1.50;1.40;;;9.30;99.90;;;;;;4989346;28;20283;-86
2024/02/13 10:30:29;;;;;;;1.63;1.53;;;9.40;99.90;;;;;;5004272;28;20216;-87
2024/02/13 10:33:06;;;;;;;6.13;1.40;;;9.40;99.90;;;;;;5003916;28;20585;-89
2024/02/13 10:35:33;;;;;;;1.17;1.07;;;9.20;99.90;;;;;;5012518;28;20201;-86
2024/02/13 10:37:59;;;;;;;10.17;2.03;;;9.10;99.90;;;;;;5012704;28;20211;-86
2024/02/13 10:40:27;;;;;;;5.17;1.20;;;9.00;99.90;;;;;;5002252;28;20306;-87
2024/02/13 10:42:59;;;;;;;2.17;1.80;;;8.90;99.90;;;;;;5007308;28;20719;-87
2024/02/13 10:45:33;;;;;;;10.13;4.97;;;8.90;99.90;;;;;;5009333;28;20691;-88
2024/02/13 10:48:16;;;;;;;3.30;2.10;;;8.90;99.90;;;;;;4996718;28;20321;-87
2024/02/13 10:50:43;;;;;;;1.37;1.37;;;8.90;99.90;;;;;;5025871;28;20535;-87
2024/02/13 10:53:11;;;;;;;8.37;1.93;;;8.90;99.90;;;;;;4985754;28;20230;-88
2024/02/13 10:55:40;;;;;;;0.97;0.97;;;8.90;99.90;;;;;;4999211;28;20228;-86
2024/02/13 10:58:07;;;;;;;0.73;0.73;;;9.00;99.90;;;;;;5007844;28;20219;-86
2024/02/13 11:00:34;;;;;;;2.10;2.00;;;9.00;99.90;;;;;;4996414;28;20565;-87
2024/02/13 11:03:00;;;;;;;0.93;0.90;;;9.00;99.90;;;;;;5012735;28;20278;-87
2024/02/13 11:05:27;;;;;;;3.97;0.87;;;9.00;99.90;;;;;;4996467;28;20286;-87
2024/02/13 11:07:54;;;;;;;2.20;1.07;;;9.20;99.90;;;;;;4997272;28;20211;-87
2024/02/13 11:10:34;;;;;;;1.40;1.30;;;9.20;99.90;;;;;;4989800;28;20684;-87
2024/02/13 11:13:05;;;;;;;0.53;0.53;;;9.30;99.90;;;;;;5006980;28;20238;-88
2024/02/13 11:15:33;;;;;;;1.03;0.77;;;9.20;99.90;;;;;;4992617;28;20352;-87
2024/02/13 11:18:04;;;;;;;0.43;0.43;;;9.30;99.90;;;;;;4980996;28;20775;-88
2024/02/13 11:20:37;;;;;;;0.50;0.50;;;9.20;99.90;;;;;;5010372;28;20651;-88
2024/02/13 11:23:11;;;;;;;0.40;0.40;;;9.30;99.90;;;;;;5010486;28;20753;-90
2024/02/13 11:25:39;;;;;;;0.93;0.93;;;9.40;99.90;;;;;;5002616;28;20220;-87
2024/02/13 11:28:06;;;;;;;0.60;0.60;;;9.40;99.90;;;;;;4983643;28;20307;-88
2024/02/13 11:30:33;;;;;;;1.87;0.70;;;9.40;99.90;;;;;;4994740;28;20228;-87
2024/02/13 11:33:03;;;;;;;0.80;0.73;;;9.60;99.90;;;;;;4979994;28;20222;-85
2024/02/13 11:35:30;;;;;;;1.20;1.10;;;9.70;99.90;;;;;;4994609;28;20302;-87
2024/02/13 11:38:01;;;;;;;0.30;0.30;;;9.80;99.90;;;;;;5000649;28;20207;-86
2024/02/13 11:40:27;;;;;;;3.33;0.80;;;9.80;99.90;;;;;;5004403;28;20227;-87
2024/02/13 11:42:54;;;;;;;11.43;0.50;;;9.90;99.90;;;;;;5009394;28;20223;-87
2024/02/13 11:45:26;;;;;;;8.93;2.23;;;9.90;99.90;;;;;;4991415;28;20257;-89
2024/02/13 11:47:54;;;;;;;0.13;0.13;;;10.10;99.90;;;;;;4992269;28;20227;-86
2024/02/13 11:50:21;;;;;;;1.10;1.03;;;10.00;99.90;;;;;;4992868;28;20523;-86
2024/02/13 11:52:48;;;;;;;1.80;1.60;;;10.10;99.90;;;;;;5006988;28;20269;-86
2024/02/13 11:55:14;;;;;;;3.40;1.07;;;10.20;99.90;;;;;;5008023;28;20223;-88
2024/02/13 11:57:46;;;;;;;0.33;0.33;;;10.30;99.90;;;;;;4993086;28;20258;-87
2024/02/13 12:00:21;;;;;;;0.40;0.40;;;10.40;99.90;;;;;;5005445;28;20232;-86
2024/02/13 12:02:53;;;;;;;2.50;0.93;;;10.50;99.90;;;;;;4975761;28;20294;-86
2024/02/13 12:05:28;;;;;;;2.73;0.43;;;10.70;99.90;;;;;;4975088;28;20661;-87
2024/02/13 12:07:54;;;;;;;19.63;0.97;;;10.80;99.90;;;;;;4989790;28;20220;-86
2024/02/13 12:10:21;;;;;;;1.43;0.83;;;10.70;99.90;;;;;;4987724;28;20219;-87
2024/02/13 12:12:49;;;;;;;0.83;0.37;;;10.70;99.90;;;;;;4988458;28;20232;-87
2024/02/13 12:15:20;;;;;;;0.20;0.20;;;10.70;99.90;;;;;;4990096;28;20231;-87
2024/02/13 12:17:57;;;;;;;0.10;0.10;;;10.80;99.90;;;;;;4990604;28;20310;-87
2024/02/13 12:20:28;;;;;;;0.57;0.57;;;10.80;99.90;;;;;;5007264;28;20723;-89
2024/02/13 12:22:58;;;;;;;0.20;0.20;;;10.70;99.90;;;;;;4991650;28;20227;-89
2024/02/13 12:25:25;;;;;;;0.60;0.37;;;10.70;99.90;;;;;;4974849;28;20235;-89
2024/02/13 12:27:51;;;;;;;1.57;0.50;;;10.70;99.90;;;;;;5006272;28;20310;-87
2024/02/13 12:30:19;;;;;;;0.23;0.23;;;10.60;99.90;;;;;;4974092;28;20595;-88
2024/02/13 12:32:48;;;;;;;0.23;0.23;;;10.50;99.90;;;;;;4973744;28;20236;-88
2024/02/13 12:35:32;;;;;;;0.20;0.20;;;10.40;99.90;;;;;;4973105;28;20584;-86
2024/02/13 12:38:12;;;;;;;3.60;0.83;;;10.20;99.90;;;;;;4976683;28;20270;-89
2024/02/13 12:40:42;;;;;;;0.23;0.23;;;10.10;99.90;;;;;;4989173;28;20266;-88
2024/02/13 12:43:08;;;;;;;0.63;0.63;;;10.10;99.90;;;;;;4990269;28;20246;-89
2024/02/13 12:45:41;;;;;;;0.87;0.87;;;10.10;99.90;;;;;;4973518;28;20211;-88
2024/02/13 12:48:09;;;;;;;2.20;0.90;;;10.10;99.90;;;;;;4980108;28;20279;-87
2024/02/13 12:50:36;;;;;;;0.17;0.17;;;10.10;99.90;;;;;;4969723;28;20338;-87
2024/02/13 12:53:04;;;;;;;1.70;1.30;;;10.20;99.90;;;;;;5006421;28;20254;-88
2024/02/13 12:55:32;;;;;;;0.40;0.40;;;10.20;99.90;;;;;;5005719;28;20223;-90
2024/02/13 12:57:57;;;;;;;3.10;2.00;;;10.20;99.90;;;;;;4973146;28;20215;-89
2024/02/13 13:00:24;;;;;;;7.00;1.70;;;10.30;99.90;;;;;;4973035;28;20227;-87
2024/02/13 13:02:50;;;;;;;1.73;0.87;;;10.20;99.90;;;;;;4976297;28;20223;-88
2024/02/13 13:05:16;;;;;;;3.80;0.90;;;10.30;99.90;;;;;;4974317;28;20204;-88
2024/02/13 13:07:46;;;;;;;7.53;0.70;;;10.20;99.90;;;;;;4958451;28;20327;-89
2024/02/13 13:10:14;;;;;;;0.20;0.20;;;10.30;99.90;;;;;;4974307;28;20212;-88
2024/02/13 13:12:44;;;;;;;3.70;1.00;;;10.50;99.90;;;;;;4983102;28;20254;-87
2024/02/13 13:15:11;;;;;;;0.57;0.57;;;10.70;99.90;;;;;;5009432;28;20250;-87
2024/02/13 13:17:39;;;;;;;0.50;0.50;;;10.60;99.90;;;;;;4991002;28;20716;-87
2024/02/13 13:20:17;;;;;;;0.40;0.40;;;10.50;99.90;;;;;;4991766;28;20200;-90
2024/02/13 13:22:47;;;;;;;0.33;0.33;;;10.50;99.90;;;;;;4985967;28;20719;-88
2024/02/13 13:25:20;;;;;;;1.63;1.33;;;10.50;99.90;;;;;;4987272;28;20255;-87
2024/02/13 13:27:46;;;;;;;0.73;0.73;;;10.50;99.90;;;;;;4978093;28;20259;-88
2024/02/13 13:30:15;;;;;;;1.50;1.40;;;10.50;99.90;;;;;;4978070;28;20258;-88
2024/02/13 13:32:44;;;;;;;0.63;0.63;;;10.40;99.90;;;;;;4975029;28;20211;-88
2024/02/13 13:35:13;;;;;;;0.87;0.87;;;10.40;99.90;;;;;;4993650;28;20583;-90
2024/02/13 13:37:40;;;;;;;0.33;0.33;;;10.30;99.90;;;;;;4977804;28;20306;-90
2024/02/13 13:40:13;;;;;;;0.73;0.60;;;10.20;99.90;;;;;;4976853;28;20224;-88
2024/02/13 13:42:43;;;;;;;10.90;1.53;;;10.10;99.90;;;;;;4993735;28;20235;-86
2024/02/13 13:45:15;;;;;;;2.50;0.90;;;10.00;99.90;;;;;;4977624;28;20597;-87
2024/02/13 13:47:45;;;;;;;1.50;0.80;;;9.80;99.90;;;;;;4975827;28;20208;-88
2024/02/13 13:50:16;;;;;;;2.13;0.57;;;9.80;99.90;;;;;;4993716;28;20196;-86
2024/02/13 13:52:45;;;;;;;0.57;0.57;;;9.90;99.90;;;;;;4977357;28;20220;-87
2024/02/13 13:55:11;;;;;;;0.93;0.30;;;9.90;99.90;;;;;;4972942;28;20228;-89
2024/02/13 13:57:37;;;;;;;3.50;1.27;;;10.00;99.90;;;;;;4976762;28;20224;-87
2024/02/13 14:00:13;;;;;;;0.47;0.47;;;10.10;99.90;;;;;;4976060;28;20231;-89
2024/02/13 14:02:39;;;;;;;4.17;0.70;;;10.20;99.90;;;;;;4992593;28;20695;-87
2024/02/13 14:05:12;;;;;;;0.33;0.33;;;10.30;99.90;;;;;;4972885;28;20262;-91
2024/02/13 14:07:38;;;;;;;0.60;0.60;;;10.30;99.90;;;;;;5010133;28;20704;-87